Time;durP1;ratioP1;P1;durP2;ratioP2;P2;SDS_P1;SDS_P2;PMS_P1;PMS_P2;Temp;Humidity;BMP_temperature;BMP_pressure;BME280_temperature;BME280_humidity;BME280_pressure;Samples;Min_cycle;Max_cycle;Signal;HPM_P1;HPM_P2
2021/10/21 00:00:11;;;;;;;8.20;6.17;;;;;;;13.39;89.00;99405.00;5069195;28;20185;-69
2021/10/21 00:02:40;;;;;;;8.90;6.37;;;;;;;13.38;88.61;99393.00;5064432;28;20193;-69
2021/10/21 00:05:07;;;;;;;8.47;6.00;;;;;;;13.36;88.87;99390.47;5065870;28;20231;-69
2021/10/21 00:07:32;;;;;;;8.93;6.53;;;;;;;13.34;88.75;99381.94;5068703;28;20749;-69
2021/10/21 00:10:01;;;;;;;9.57;6.40;;;;;;;13.36;88.63;99387.03;5070259;28;20276;-69
2021/10/21 00:12:26;;;;;;;8.90;6.70;;;;;;;13.39;88.86;99376.72;5064186;28;20193;-69
2021/10/21 00:14:52;;;;;;;8.37;6.23;;;;;;;13.38;88.60;99378.44;5068236;28;20276;-69
2021/10/21 00:17:17;;;;;;;7.93;6.20;;;;;;;13.38;88.79;99362.16;5069912;28;20304;-69
2021/10/21 00:19:42;;;;;;;8.63;6.63;;;;;;;13.40;88.65;99350.13;5070094;28;20223;-69
2021/10/21 00:22:08;;;;;;;7.13;6.00;;;;;;;13.41;88.11;99362.13;5069091;28;20224;-70
2021/10/21 00:24:34;;;;;;;8.93;6.73;;;;;;;13.42;88.97;99354.38;5068898;28;20242;-69
2021/10/21 00:26:59;;;;;;;8.90;7.13;;;;;;;13.41;88.94;99349.25;5067914;28;20216;-69
2021/10/21 00:29:24;;;;;;;7.97;6.00;;;;;;;13.41;88.72;99344.13;5067636;28;20190;-69
2021/10/21 00:31:50;;;;;;;8.07;5.77;;;;;;;13.41;88.73;99339.84;5067842;28;20201;-69
2021/10/21 00:34:17;;;;;;;9.20;5.67;;;;;;;13.41;88.39;99331.25;5067207;28;20189;-69
2021/10/21 00:36:43;;;;;;;7.47;6.50;;;;;;;13.39;89.07;99323.56;5067744;28;20233;-69
2021/10/21 00:39:09;;;;;;;10.40;6.17;;;;;;;13.42;88.76;99322.66;5069713;28;20185;-69
2021/10/21 00:41:34;;;;;;;8.47;5.97;;;;;;;13.43;88.48;99312.34;5066850;28;20209;-69
2021/10/21 00:44:11;;;;;;;7.90;6.17;;;;;;;13.40;89.00;99301.28;5061918;28;20205;-69
2021/10/21 00:46:38;;;;;;;8.33;6.53;;;;;;;13.42;89.13;99286.66;5068106;28;20192;-69
2021/10/21 00:49:07;;;;;;;6.97;6.27;;;;;;;13.40;89.07;99281.53;5069483;28;20667;-69
2021/10/21 00:51:34;;;;;;;7.93;6.63;;;;;;;13.40;89.16;99273.00;5066401;28;20197;-69
2021/10/21 00:54:01;;;;;;;6.23;5.63;;;;;;;13.36;88.98;99267.06;5069556;28;20221;-69
2021/10/21 00:56:27;;;;;;;5.90;5.30;;;;;;;13.39;88.52;99268.75;5068389;28;20227;-69
2021/10/21 00:58:53;;;;;;;10.27;6.53;;;;;;;13.39;88.53;99245.59;5064662;28;20213;-69
2021/10/21 01:01:20;;;;;;;7.73;6.23;;;;;;;13.39;88.44;99238.72;5069406;28;20272;-69
2021/10/21 01:03:46;;;;;;;9.20;6.43;;;;;;;13.40;88.87;99224.97;5069562;28;20181;-69
2021/10/21 01:06:12;;;;;;;7.20;6.00;;;;;;;13.38;89.09;99215.59;5067563;28;20219;-69
2021/10/21 01:08:38;;;;;;;8.07;6.50;;;;;;;13.35;88.51;99202.81;5066471;28;20215;-69
2021/10/21 01:11:04;;;;;;;9.80;6.80;;;;;;;13.28;89.25;99198.66;5066427;28;20181;-69
2021/10/21 01:13:29;;;;;;;7.67;6.60;;;;;;;13.27;89.09;99184.97;5058188;28;20189;-69
2021/10/21 01:16:05;;;;;;;6.73;6.03;;;;;;;13.27;89.09;99173.81;5068994;28;20693;-69
2021/10/21 01:18:32;;;;;;;7.13;5.87;;;;;;;13.25;89.53;99163.56;5060948;28;20227;-69
2021/10/21 01:20:59;;;;;;;7.20;6.50;;;;;;;13.26;89.38;99154.13;5062932;28;20614;-69
2021/10/21 01:23:25;;;;;;;6.53;5.90;;;;;;;13.25;89.16;99137.03;5068761;28;20204;-69
2021/10/21 01:25:50;;;;;;;9.20;6.23;;;;;;;13.26;88.79;99126.69;5065391;28;20694;-69
2021/10/21 01:28:15;;;;;;;9.73;6.40;;;;;;;13.29;89.21;99112.94;5069435;28;20205;-69
2021/10/21 01:30:41;;;;;;;7.00;6.30;;;;;;;13.27;89.63;99109.56;5069473;28;20692;-69
2021/10/21 01:33:07;;;;;;;7.60;6.40;;;;;;;13.30;89.28;99094.91;5072307;28;20221;-69
2021/10/21 01:35:32;;;;;;;7.63;6.30;;;;;;;13.32;89.33;99074.31;5067680;28;20224;-69
2021/10/21 01:37:57;;;;;;;7.37;6.07;;;;;;;13.33;89.35;99061.44;5070525;28;20228;-69
2021/10/21 01:40:23;;;;;;;8.27;6.27;;;;;;;13.35;88.76;99066.56;5073110;28;20716;-69
2021/10/21 01:42:48;;;;;;;7.70;6.27;;;;;;;13.38;89.05;99074.19;5064922;28;20906;-69
2021/10/21 01:45:15;;;;;;;7.77;5.80;;;;;;;13.38;88.78;99071.63;5068508;28;20557;-69
2021/10/21 01:47:41;;;;;;;9.00;5.33;;;;;;;13.41;89.01;99071.56;5072569;28;20201;-69
2021/10/21 01:50:06;;;;;;;7.83;5.97;;;;;;;13.42;89.01;99062.97;5071377;28;20220;-69
2021/10/21 01:52:32;;;;;;;11.47;5.90;;;;;;;13.42;88.76;99052.69;5070752;28;20196;-69
2021/10/21 01:54:57;;;;;;;7.90;6.07;;;;;;;13.44;88.98;99038.91;5071939;28;20195;-69
2021/10/21 01:57:22;;;;;;;8.20;5.97;;;;;;;13.44;89.18;99038.09;5069953;28;20221;-69
2021/10/21 01:59:48;;;;;;;9.57;6.57;;;;;;;13.42;89.68;99021.81;5063545;28;20206;-70
2021/10/21 02:02:13;;;;;;;7.07;6.30;;;;;;;13.39;89.37;99009.06;5069195;28;20201;-68
2021/10/21 02:04:38;;;;;;;7.53;6.53;;;;;;;13.38;90.07;98981.63;5066108;28;20198;-69
2021/10/21 02:07:04;;;;;;;7.67;6.40;;;;;;;13.36;90.37;98958.56;5070140;28;20209;-69
2021/10/21 02:09:29;;;;;;;9.77;6.40;;;;;;;13.37;91.00;98952.53;5072382;28;20230;-69
2021/10/21 02:11:54;;;;;;;7.77;6.37;;;;;;;13.39;90.37;98924.22;5067814;28;20189;-69
2021/10/21 02:14:20;;;;;;;9.87;6.43;;;;;;;13.42;90.27;98899.28;5069387;28;20208;-69
2021/10/21 02:16:45;;;;;;;8.27;6.07;;;;;;;13.44;90.74;98914.66;5067494;28;20879;-69
2021/10/21 02:19:10;;;;;;;8.37;6.00;;;;;;;13.45;90.41;98906.88;5064268;28;20193;-69
2021/10/21 02:21:36;;;;;;;10.37;6.57;;;;;;;13.46;90.58;98889.75;5072478;28;20284;-69
2021/10/21 02:24:01;;;;;;;7.03;6.40;;;;;;;13.45;91.05;98894.03;5072237;28;20629;-69
2021/10/21 02:26:26;;;;;;;11.03;7.30;;;;;;;13.45;91.70;98894.03;5072213;28;20592;-69
2021/10/21 02:28:52;;;;;;;10.67;7.50;;;;;;;13.46;90.74;98862.31;5054996;28;20217;-69
2021/10/21 02:31:17;;;;;;;9.00;6.77;;;;;;;13.46;90.92;98857.19;5052054;28;20198;-69
2021/10/21 02:33:42;;;;;;;8.53;6.57;;;;;;;13.49;91.11;98863.97;5068231;28;20220;-69
2021/10/21 02:36:08;;;;;;;8.60;6.93;;;;;;;13.48;91.28;98844.28;5063770;28;20214;-69
2021/10/21 02:38:33;;;;;;;8.00;5.93;;;;;;;13.48;91.55;98839.16;5072269;28;20612;-69
2021/10/21 02:40:58;;;;;;;8.43;6.40;;;;;;;13.48;91.36;98841.72;5069741;28;20559;-69
2021/10/21 02:43:24;;;;;;;9.07;6.40;;;;;;;13.48;91.06;98823.72;5069090;28;20553;-69
2021/10/21 02:45:49;;;;;;;6.97;4.93;;;;;;;13.47;90.59;98807.44;5066868;28;20216;-69
2021/10/21 02:48:14;;;;;;;7.13;5.07;;;;;;;13.48;90.58;98801.41;5070709;28;20277;-69
2021/10/21 02:50:40;;;;;;;6.10;4.73;;;;;;;13.48;90.33;98796.25;5071792;28;20549;-69
2021/10/21 02:53:05;;;;;;;6.60;4.27;;;;;;;13.52;90.18;98781.59;5070266;28;20531;-69
2021/10/21 02:55:30;;;;;;;6.50;4.40;;;;;;;13.53;89.79;98776.41;5070208;28;20288;-69
2021/10/21 02:57:56;;;;;;;5.87;4.20;;;;;;;13.54;89.41;98770.38;5071496;28;20222;-69
2021/10/21 03:00:21;;;;;;;7.93;5.20;;;;;;;13.62;90.01;98759.94;5071692;28;20213;-69
2021/10/21 03:02:47;;;;;;;7.97;5.47;;;;;;;13.60;90.09;98752.25;5070526;28;20197;-69
2021/10/21 03:05:13;;;;;;;8.80;5.43;;;;;;;13.63;90.13;98735.88;5070389;28;20186;-69
2021/10/21 03:07:38;;;;;;;8.23;5.47;;;;;;;13.59;90.41;98717.13;5071384;28;20201;-69
2021/10/21 03:10:04;;;;;;;6.17;5.57;;;;;;;13.59;90.68;98706.00;5071572;28;20181;-69
2021/10/21 03:12:30;;;;;;;8.47;5.50;;;;;;;13.55;90.42;98684.66;5071584;28;20550;-69
2021/10/21 03:14:55;;;;;;;6.87;5.57;;;;;;;13.54;90.29;98684.69;5071453;28;20799;-69
2021/10/21 03:17:21;;;;;;;10.20;5.50;;;;;;;13.53;90.22;98677.88;5071261;28;20213;-69
2021/10/21 03:19:46;;;;;;;10.70;6.53;;;;;;;13.52;90.51;98664.16;5053314;28;20194;-69
2021/10/21 03:22:12;;;;;;;8.83;6.70;;;;;;;13.54;90.52;98656.41;5051244;28;20244;-69
2021/10/21 03:24:37;;;;;;;8.70;7.20;;;;;;;13.53;91.16;98647.84;5050214;28;20255;-69
2021/10/21 03:27:03;;;;;;;8.93;7.60;;;;;;;13.55;90.77;98638.38;5049709;28;20237;-69
2021/10/21 03:29:28;;;;;;;10.13;8.13;;;;;;;13.53;90.82;98624.69;5051224;28;20181;-68
2021/10/21 03:31:53;;;;;;;9.73;8.20;;;;;;;13.55;91.18;98604.94;5066120;28;20873;-69
2021/10/21 03:34:19;;;;;;;9.77;7.20;;;;;;;13.55;90.46;98593.81;5071132;28;20190;-69
2021/10/21 03:36:44;;;;;;;10.43;8.47;;;;;;;13.54;91.02;98572.38;5054644;28;20217;-69
2021/10/21 03:39:10;;;;;;;11.43;8.70;;;;;;;13.53;90.79;98532.13;5049830;28;20193;-68
2021/10/21 03:41:35;;;;;;;9.63;8.37;;;;;;;13.55;90.68;98526.94;5051097;28;20182;-69
2021/10/21 03:44:01;;;;;;;10.30;8.50;;;;;;;13.59;90.44;98503.69;5051196;28;20265;-68
2021/10/21 03:46:26;;;;;;;10.27;8.60;;;;;;;13.60;90.68;98504.50;5050939;28;20230;-69
2021/10/21 03:48:51;;;;;;;12.57;8.90;;;;;;;13.63;90.46;98483.84;5049928;28;20679;-69
2021/10/21 03:51:17;;;;;;;11.33;8.60;;;;;;;13.67;90.85;98478.56;5049991;28;20190;-69
2021/10/21 03:53:42;;;;;;;11.27;7.93;;;;;;;13.71;90.49;98480.16;5051039;28;20260;-69
2021/10/21 03:56:09;;;;;;;12.80;7.80;;;;;;;13.82;90.56;98482.38;5050808;28;20218;-69
2021/10/21 03:58:36;;;;;;;9.73;8.00;;;;;;;13.82;90.50;98480.66;5050713;28;20209;-69
2021/10/21 04:01:01;;;;;;;8.47;6.67;;;;;;;13.88;90.61;98462.47;5050787;28;20213;-68
2021/10/21 04:03:26;;;;;;;8.07;7.10;;;;;;;13.97;89.86;98469.03;5050610;28;20217;-69
2021/10/21 04:05:52;;;;;;;8.27;6.80;;;;;;;13.99;90.41;98457.78;5050400;28;20194;-69
2021/10/21 04:08:17;;;;;;;8.83;7.23;;;;;;;14.00;90.14;98492.91;5050423;28;20268;-69
2021/10/21 04:10:43;;;;;;;12.90;6.73;;;;;;;14.06;90.16;98489.31;5049837;28;20639;-69
2021/10/21 04:13:09;;;;;;;8.80;6.30;;;;;;;14.09;90.58;98469.47;5049076;28;20559;-69
2021/10/21 04:15:35;;;;;;;6.93;6.23;;;;;;;14.13;90.30;98475.38;5050124;28;20749;-69
2021/10/21 04:18:00;;;;;;;9.97;6.37;;;;;;;14.23;89.99;98467.28;5050293;28;20281;-69
2021/10/21 04:20:25;;;;;;;8.43;6.13;;;;;;;14.19;90.03;98455.41;5050132;28;20189;-69
2021/10/21 04:22:51;;;;;;;5.90;5.30;;;;;;;14.22;89.75;98444.22;5050173;28;20197;-69
2021/10/21 04:25:16;;;;;;;6.53;4.57;;;;;;;14.28;89.55;98444.00;5050182;28;20189;-69
2021/10/21 04:27:43;;;;;;;4.47;4.07;;;;;;;14.38;88.60;98455.66;5049141;28;20241;-68
2021/10/21 04:30:08;;;;;;;5.47;3.70;;;;;;;14.42;87.99;98454.66;5050686;28;20652;-69
2021/10/21 04:32:34;;;;;;;5.23;3.50;;;;;;;14.39;88.08;98471.06;5069738;28;20218;-69
2021/10/21 04:34:59;;;;;;;4.80;4.30;;;;;;;14.42;88.13;98462.38;5069911;28;20549;-69
2021/10/21 04:37:25;;;;;;;4.00;3.60;;;;;;;14.47;87.25;98509.41;5068257;28;20213;-69
2021/10/21 04:39:51;;;;;;;2.53;2.23;;;;;;;14.26;82.56;98500.69;5069874;28;20178;-69
2021/10/21 04:42:16;;;;;;;2.23;1.60;;;;;;;14.02;78.04;98523.75;5069900;28;20539;-69
2021/10/21 04:44:43;;;;;;;6.83;2.10;;;;;;;13.58;82.99;98506.31;5053714;28;20202;-69
2021/10/21 04:47:09;;;;;;;4.43;2.00;;;;;;;12.85;85.38;98510.94;5050195;28;20202;-68
2021/10/21 04:49:35;;;;;;;4.50;2.67;;;;;;;12.70;84.73;98467.72;5049782;28;20280;-68
2021/10/21 04:52:00;;;;;;;4.07;2.17;;;;;;;12.88;82.62;98477.47;5049953;28;20213;-68
2021/10/21 04:54:26;;;;;;;3.43;2.20;;;;;;;12.93;82.62;98478.19;5050019;28;20181;-68
2021/10/21 04:56:51;;;;;;;3.57;1.90;;;;;;;12.97;82.89;98473.84;5049539;28;20213;-69
2021/10/21 04:59:16;;;;;;;5.33;2.27;;;;;;;13.00;83.34;98484.03;5048356;28;20185;-69
2021/10/21 05:01:41;;;;;;;5.33;2.00;;;;;;;13.09;83.45;98477.78;5050269;28;20186;-68
2021/10/21 05:04:09;;;;;;;4.90;2.33;;;;;;;13.13;83.54;98479.38;5049610;28;20186;-68
2021/10/21 05:06:34;;;;;;;4.00;2.40;;;;;;;13.16;84.03;98482.69;5048327;28;20276;-68
2021/10/21 05:08:59;;;;;;;3.07;2.03;;;;;;;13.14;84.24;98473.34;5048076;28;20686;-69
2021/10/21 05:11:25;;;;;;;4.30;2.50;;;;;;;13.18;84.76;98483.50;5049324;28;20635;-69
2021/10/21 05:13:50;;;;;;;3.20;2.43;;;;;;;13.20;84.50;98474.00;5049701;28;20174;-69
2021/10/21 05:16:15;;;;;;;3.70;2.00;;;;;;;13.40;83.01;98478.56;5049093;28;20297;-69
2021/10/21 05:18:41;;;;;;;3.57;1.90;;;;;;;13.35;83.66;98467.59;5048510;28;20288;-69
2021/10/21 05:21:07;;;;;;;4.03;2.30;;;;;;;13.40;83.65;98473.44;5047842;28;20697;-68
2021/10/21 05:23:32;;;;;;;3.20;1.90;;;;;;;13.42;82.64;98510.19;5049269;28;20194;-69
2021/10/21 05:25:57;;;;;;;3.33;1.70;;;;;;;13.41;81.56;98524.81;5048967;28;20214;-68
2021/10/21 05:28:23;;;;;;;2.73;1.67;;;;;;;13.29;81.62;98501.16;5049178;28;20698;-68
2021/10/21 05:30:48;;;;;;;2.83;1.60;;;;;;;13.18;81.91;98504.06;5054131;28;20188;-69
2021/10/21 05:33:13;;;;;;;4.90;1.80;;;;;;;13.07;82.12;98494.97;5069075;28;20189;-69
2021/10/21 05:35:39;;;;;;;2.10;1.60;;;;;;;13.00;82.81;98504.59;5053623;28;20230;-69
2021/10/21 05:38:04;;;;;;;3.77;1.77;;;;;;;12.94;82.00;98502.13;5049128;28;20217;-68
2021/10/21 05:40:29;;;;;;;1.57;1.43;;;;;;;12.85;82.86;98507.53;5049237;28;20209;-69
2021/10/21 05:42:55;;;;;;;3.03;1.97;;;;;;;12.81;82.48;98498.25;5049060;28;20174;-68
2021/10/21 05:45:20;;;;;;;3.67;1.77;;;;;;;12.79;82.67;98498.28;5049176;28;20197;-68
2021/10/21 05:47:46;;;;;;;4.57;1.63;;;;;;;12.76;82.35;98498.34;5048828;28;20206;-68
2021/10/21 05:50:13;;;;;;;4.13;1.53;;;;;;;12.72;82.05;98495.91;5049087;28;20182;-69
2021/10/21 05:52:38;;;;;;;3.50;1.70;;;;;;;12.72;81.81;98495.91;5049555;28;20220;-69
2021/10/21 05:55:05;;;;;;;3.87;1.70;;;;;;;12.68;82.25;98505.41;5047701;28;20268;-69
2021/10/21 05:57:30;;;;;;;4.30;1.87;;;;;;;12.67;81.68;98511.44;5048728;28;20246;-68
2021/10/21 05:59:56;;;;;;;4.00;1.80;;;;;;;12.64;81.58;98508.13;5049121;28;20225;-68
2021/10/21 06:02:21;;;;;;;2.50;1.50;;;;;;;12.61;81.83;98508.19;5049184;28;20186;-69
2021/10/21 06:04:46;;;;;;;5.00;1.70;;;;;;;12.63;82.42;98509.00;5049078;28;20186;-69
2021/10/21 06:07:13;;;;;;;2.47;1.50;;;;;;;12.63;82.00;98509.81;5047483;28;20210;-69
2021/10/21 06:09:38;;;;;;;2.63;1.50;;;;;;;12.64;81.10;98510.69;5050015;28;20209;-69
2021/10/21 06:12:04;;;;;;;2.03;1.50;;;;;;;12.64;81.16;98508.13;5067332;28;20280;-69
2021/10/21 06:14:31;;;;;;;4.13;1.63;;;;;;;12.67;81.39;98502.91;5068858;28;20715;-68
2021/10/21 06:16:58;;;;;;;2.53;1.30;;;;;;;12.78;80.72;98504.31;5069094;28;20788;-68
2021/10/21 06:19:23;;;;;;;2.53;1.47;;;;;;;12.76;81.21;98503.47;5072344;28;20557;-68
2021/10/21 06:21:50;;;;;;;2.50;1.30;;;;;;;12.71;81.24;98495.06;5072405;28;20190;-69
2021/10/21 06:24:15;;;;;;;4.07;1.47;;;;;;;12.70;80.76;98500.25;5071924;28;20219;-68
2021/10/21 06:26:41;;;;;;;2.87;1.30;;;;;;;12.65;81.35;98487.53;5071078;28;20755;-68
2021/10/21 06:29:07;;;;;;;2.70;0.97;;;;;;;12.62;79.47;98492.75;5056307;28;20240;-70
2021/10/21 06:31:32;;;;;;;2.60;1.20;;;;;;;12.58;79.68;98511.69;5052388;28;20204;-68
2021/10/21 06:33:57;;;;;;;3.00;1.10;;;;;;;12.43;81.79;98496.69;5052347;28;20194;-68
2021/10/21 06:36:25;;;;;;;3.90;1.10;;;;;;;12.37;81.42;98493.44;5052094;28;20663;-69
2021/10/21 06:38:50;;;;;;;3.03;1.13;;;;;;;12.35;82.00;98480.63;5052037;28;20209;-69
2021/10/21 06:41:16;;;;;;;3.90;1.20;;;;;;;12.33;81.93;98487.53;5052456;28;20189;-70
2021/10/21 06:43:41;;;;;;;1.93;1.10;;;;;;;12.27;82.67;98472.31;5052852;28;20643;-69
2021/10/21 06:46:07;;;;;;;2.30;1.27;;;;;;;12.40;82.27;98473.66;5051926;28;20793;-68
2021/10/21 06:48:33;;;;;;;3.03;1.73;;;;;;;12.36;81.92;98466.09;5051911;28;20996;-68
2021/10/21 06:50:58;;;;;;;3.70;1.57;;;;;;;12.36;82.45;98450.69;5051994;28;20193;-69
2021/10/21 06:53:24;;;;;;;5.13;1.50;;;;;;;12.34;82.34;98448.16;5051877;28;20209;-68
2021/10/21 06:55:49;;;;;;;5.07;1.40;;;;;;;12.30;83.37;98454.25;5051795;28;20706;-69
2021/10/21 06:58:15;;;;;;;4.30;1.60;;;;;;;12.29;83.33;98444.88;5051735;28;20583;-68
2021/10/21 07:00:42;;;;;;;4.23;1.60;;;;;;;12.24;83.63;98451.00;5051805;28;20199;-68
2021/10/21 07:03:10;;;;;;;2.53;1.47;;;;;;;12.30;83.03;98443.97;5051917;28;20653;-69
2021/10/21 07:05:39;;;;;;;2.03;1.40;;;;;;;12.24;83.88;98448.44;5064286;28;20622;-69
2021/10/21 07:08:13;;;;;;;3.87;1.70;;;;;;;12.18;84.38;98451.16;5071532;28;20213;-68
2021/10/21 07:10:40;;;;;;;4.80;1.93;;;;;;;12.05;84.66;98442.94;5071693;28;20173;-69
2021/10/21 07:13:05;;;;;;;4.10;1.90;;;;;;;11.95;85.51;98436.38;5071978;28;20181;-68
2021/10/21 07:15:34;;;;;;;4.37;1.97;;;;;;;11.91;85.97;98431.34;5071268;28;20554;-70
2021/10/21 07:18:01;;;;;;;3.50;1.80;;;;;;;11.87;86.72;98420.31;5053382;28;20208;-69
2021/10/21 07:20:27;;;;;;;5.17;2.60;;;;;;;11.83;86.92;98413.59;5051328;28;20183;-70
2021/10/21 07:22:52;;;;;;;5.27;2.33;;;;;;;11.82;86.79;98416.19;5051388;28;20188;-70
2021/10/21 07:25:18;;;;;;;4.17;2.37;;;;;;;11.80;87.10;98408.53;5051000;28;20213;-71
2021/10/21 07:27:44;;;;;;;3.80;1.70;;;;;;;11.74;87.69;98395.88;5050982;28;20241;-70
2021/10/21 07:30:10;;;;;;;4.60;1.97;;;;;;;11.76;87.77;98385.56;5050269;28;20682;-70
2021/10/21 07:32:37;;;;;;;4.90;2.00;;;;;;;11.74;87.25;98379.63;5050984;28;20198;-70
2021/10/21 07:35:03;;;;;;;5.70;2.23;;;;;;;11.71;88.04;98377.16;5051675;28;20198;-70
2021/10/21 07:37:28;;;;;;;5.50;2.27;;;;;;;11.66;87.96;98372.13;5050638;28;20714;-70
2021/10/21 07:39:53;;;;;;;2.87;1.80;;;;;;;11.66;87.48;98372.13;5051054;28;20681;-70
2021/10/21 07:42:19;;;;;;;2.63;1.47;;;;;;;11.67;87.39;98368.72;5050773;28;20183;-69
2021/10/21 07:44:46;;;;;;;4.27;1.60;;;;;;;11.65;87.87;98375.56;5050904;28;20243;-69
2021/10/21 07:47:11;;;;;;;4.17;1.70;;;;;;;11.64;88.32;98368.78;5050374;28;20217;-69
2021/10/21 07:49:37;;;;;;;3.00;2.03;;;;;;;11.62;88.23;98385.06;5050764;28;20714;-70
2021/10/21 07:52:04;;;;;;;3.53;1.80;;;;;;;11.59;88.88;98385.09;5067255;28;20714;-69
2021/10/21 07:54:30;;;;;;;3.57;1.90;;;;;;;11.48;89.50;98382.78;5066531;28;20694;-69
2021/10/21 07:57:00;;;;;;;4.27;1.87;;;;;;;11.43;90.54;98412.00;5061218;28;20213;-68
2021/10/21 07:59:26;;;;;;;4.03;1.87;;;;;;;11.46;90.12;98440.09;5070379;28;20268;-69
2021/10/21 08:01:53;;;;;;;2.57;1.30;;;;;;;11.45;88.68;98429.00;5064624;28;20796;-68
2021/10/21 08:04:18;;;;;;;3.57;1.20;;;;;;;11.41;88.82;98444.47;5069923;28;20197;-68
2021/10/21 08:06:44;;;;;;;2.53;0.97;;;;;;;11.26;87.34;98434.59;5070171;28;20193;-68
2021/10/21 08:09:10;;;;;;;0.97;0.80;;;;;;;11.29;86.98;98437.09;5067039;28;20201;-68
2021/10/21 08:11:36;;;;;;;1.53;0.70;;;;;;;11.31;87.01;98443.00;5070437;28;20201;-68
2021/10/21 08:14:01;;;;;;;1.43;0.63;;;;;;;11.28;87.24;98448.19;5070287;28;20238;-68
2021/10/21 08:16:27;;;;;;;1.73;0.60;;;;;;;11.18;87.24;98457.81;5069939;28;20201;-68
2021/10/21 08:18:53;;;;;;;1.27;0.80;;;;;;;11.19;87.76;98456.94;5070277;28;20951;-68
2021/10/21 08:21:18;;;;;;;0.93;0.60;;;;;;;11.09;87.66;98463.13;5053338;28;20194;-68
2021/10/21 08:23:44;;;;;;;0.90;0.60;;;;;;;11.10;87.88;98457.13;5052670;28;20223;-67
2021/10/21 08:26:09;;;;;;;1.07;0.50;;;;;;;11.01;87.63;98480.34;5061793;28;20545;-69
2021/10/21 08:28:34;;;;;;;1.93;0.60;;;;;;;11.05;87.43;98487.09;5068700;28;20205;-69
2021/10/21 08:31:00;;;;;;;1.37;0.40;;;;;;;11.06;87.45;98491.34;5059613;28;20194;-69
2021/10/21 08:33:25;;;;;;;0.40;0.40;;;;;;;11.00;87.68;98501.72;5050164;28;20553;-69
2021/10/21 08:35:51;;;;;;;0.50;0.50;;;;;;;11.03;87.84;98509.34;5049850;28;20287;-69
2021/10/21 08:38:16;;;;;;;0.70;0.50;;;;;;;10.96;87.26;98517.19;5049990;28;20210;-69
2021/10/21 08:40:41;;;;;;;0.57;0.43;;;;;;;10.93;87.81;98536.00;5049758;28;20201;-69
2021/10/21 08:43:07;;;;;;;0.70;0.50;;;;;;;10.94;88.12;98562.44;5059074;28;20190;-69
2021/10/21 08:45:34;;;;;;;4.00;1.00;;;;;;;10.98;88.25;98585.44;5049908;28;20284;-70
2021/10/21 08:48:03;;;;;;;2.47;1.20;;;;;;;11.00;88.56;98601.59;5050153;28;20738;-69
2021/10/21 08:50:32;;;;;;;2.00;0.90;;;;;;;10.99;88.02;98624.66;5049904;28;20688;-69
2021/10/21 08:52:57;;;;;;;1.63;0.63;;;;;;;10.98;86.74;98653.72;5050084;28;20190;-69
2021/10/21 08:55:23;;;;;;;2.23;1.20;;;;;;;10.96;86.69;98681.91;5049889;28;20201;-69
2021/10/21 08:57:49;;;;;;;2.03;0.70;;;;;;;10.99;86.39;98698.91;5050241;28;20228;-68
2021/10/21 09:00:14;;;;;;;2.20;0.40;;;;;;;11.01;86.02;98725.38;5050078;28;20182;-69
2021/10/21 09:05:15;;;;;;;1.20;0.50;;;;;;;10.99;84.31;98755.25;5049705;28;20261;-68
2021/10/21 09:07:57;;;;;;;1.33;0.70;;;;;;;11.02;84.43;98780.84;5049521;28;20289;-68
2021/10/21 09:10:23;;;;;;;2.13;0.83;;;;;;;11.04;85.22;98802.97;5049762;28;20233;-68
2021/10/21 09:12:49;;;;;;;3.33;0.80;;;;;;;11.03;85.58;98808.97;5049831;28;20206;-68
2021/10/21 09:15:20;;;;;;;6.23;0.90;;;;;;;11.10;85.06;98825.94;5050250;28;20201;-69
2021/10/21 09:17:47;;;;;;;4.97;1.20;;;;;;;11.20;85.36;98849.69;5049507;28;20865;-70
2021/10/21 09:20:39;;;;;;;2.20;0.80;;;;;;;11.24;85.03;98861.59;5059168;28;20924;-69
2021/10/21 09:23:07;;;;;;;3.03;0.80;;;;;;;11.20;84.41;98888.94;5065232;28;20181;-70
2021/10/21 09:25:34;;;;;;;3.13;0.90;;;;;;;11.24;84.53;98902.59;5069486;28;20204;-70
2021/10/21 09:28:04;;;;;;;2.30;1.00;;;;;;;11.25;84.13;98919.66;5051580;28;20213;-69
2021/10/21 09:30:32;;;;;;;3.03;1.03;;;;;;;11.21;84.47;98926.53;5069566;28;20219;-69
2021/10/21 09:33:06;;;;;;;4.67;1.30;;;;;;;11.27;84.42;98952.06;5059877;28;20217;-69
2021/10/21 09:35:34;;;;;;;7.67;1.53;;;;;;;11.31;84.65;98965.66;5049194;28;20599;-69
2021/10/21 09:38:00;;;;;;;1.37;0.77;;;;;;;11.28;84.55;98971.69;5049462;28;20287;-69
2021/10/21 09:40:31;;;;;;;4.23;1.10;;;;;;;11.29;85.08;98983.63;5049485;28;20657;-71
2021/10/21 09:43:05;;;;;;;3.67;1.00;;;;;;;11.27;84.78;98999.88;5049437;28;20167;-70
2021/10/21 09:45:41;;;;;;;4.47;1.00;;;;;;;11.28;84.42;99017.81;5049225;28;20185;-67
2021/10/21 09:48:08;;;;;;;4.93;1.30;;;;;;;11.33;84.55;99033.13;5049382;28;20295;-69
2021/10/21 09:50:37;;;;;;;4.53;1.00;;;;;;;11.31;84.44;99042.53;5050076;28;20247;-69
2021/10/21 09:53:20;;;;;;;6.33;1.10;;;;;;;11.37;85.09;99050.13;5051605;28;20231;-70
2021/10/21 09:55:48;;;;;;;5.33;1.00;;;;;;;11.31;84.59;99056.22;5053124;28;20220;-69
2021/10/21 09:58:18;;;;;;;6.13;1.10;;;;;;;11.33;84.51;99069.84;5052955;28;20206;-68
2021/10/21 10:00:44;;;;;;;5.17;1.50;;;;;;;11.42;84.77;99077.41;5053339;28;20563;-69
2021/10/21 10:03:31;;;;;;;6.87;1.53;;;;;;;11.45;84.41;99091.91;5053015;28;20185;-68
2021/10/21 10:05:57;;;;;;;7.27;1.43;;;;;;;11.55;84.71;99107.16;5053673;28;20536;-68
2021/10/21 10:08:23;;;;;;;4.47;1.50;;;;;;;11.71;83.74;99113.78;5072708;28;20212;-69
2021/10/21 10:10:54;;;;;;;6.90;1.30;;;;;;;11.87;83.88;99117.00;5072865;28;20643;-69
2021/10/21 10:13:23;;;;;;;6.03;1.50;;;;;;;11.71;82.36;99126.63;5072830;28;20170;-69
2021/10/21 10:15:50;;;;;;;9.37;1.63;;;;;;;11.64;83.21;99131.84;5072504;28;20213;-69
2021/10/21 10:18:21;;;;;;;5.33;1.30;;;;;;;11.45;83.39;99164.53;5062054;28;20724;-69
2021/10/21 10:20:51;;;;;;;4.83;1.27;;;;;;;11.47;82.87;99165.34;5066719;28;20266;-69
2021/10/21 10:23:19;;;;;;;4.77;1.57;;;;;;;11.50;83.20;99183.25;5067576;28;20198;-69
2021/10/21 10:25:51;;;;;;;3.17;0.90;;;;;;;11.51;84.20;99186.66;5056294;28;20248;-69
2021/10/21 10:28:17;;;;;;;4.07;0.93;;;;;;;11.42;84.06;99203.00;5071682;28;20251;-69
2021/10/21 10:30:54;;;;;;;5.23;1.10;;;;;;;11.40;84.36;99211.56;5071485;28;20618;-69
2021/10/21 10:33:32;;;;;;;4.97;1.30;;;;;;;11.39;85.03;99218.38;5070416;28;20612;-69
2021/10/21 10:36:26;;;;;;;6.87;1.63;;;;;;;11.30;86.94;99233.84;5069898;28;20216;-69
2021/10/21 10:38:52;;;;;;;3.60;1.10;;;;;;;11.19;86.48;99243.38;5053563;28;20217;-70
2021/10/21 10:41:43;;;;;;;5.13;1.53;;;;;;;11.14;86.75;99263.06;5063945;28;20244;-70
2021/10/21 10:44:09;;;;;;;4.63;1.17;;;;;;;11.29;86.33;99285.16;5070138;28;20197;-70
2021/10/21 10:46:54;;;;;;;2.80;0.83;;;;;;;11.27;85.36;99279.16;5065377;28;20221;-69
2021/10/21 10:49:37;;;;;;;3.93;0.90;;;;;;;11.21;85.17;99308.28;5064907;28;20193;-69
2021/10/21 10:52:05;;;;;;;2.07;0.67;;;;;;;11.14;85.82;99296.34;5071998;28;20217;-69
2021/10/21 10:54:39;;;;;;;5.90;1.37;;;;;;;11.10;85.87;99314.34;5071943;28;20181;-69
2021/10/21 10:57:05;;;;;;;4.23;1.10;;;;;;;11.27;86.07;99322.72;5069339;28;20239;-69
2021/10/21 10:59:32;;;;;;;5.50;1.20;;;;;;;11.52;85.16;99324.22;5052142;28;20228;-69
2021/10/21 11:02:00;;;;;;;3.80;1.17;;;;;;;11.68;83.23;99330.94;5051937;28;20205;-69
2021/10/21 11:07:22;;;;;;;5.33;1.13;;;;;;;11.74;82.91;99338.56;5069828;28;20240;-69
2021/10/21 11:09:48;;;;;;;3.70;1.10;;;;;;;11.98;83.09;99351.16;5070316;28;20190;-69
2021/10/21 11:12:22;;;;;;;3.10;0.73;;;;;;;12.46;82.17;99356.59;5053841;28;20202;-69
2021/10/21 11:14:54;;;;;;;4.03;1.23;;;;;;;14.30;75.94;99351.94;5062818;28;20245;-69
2021/10/21 11:17:43;;;;;;;3.97;1.17;;;;;;;14.45;72.36;99361.09;5069836;28;20225;-69
2021/10/21 11:20:34;;;;;;;4.33;0.80;;;;;;;13.01;78.74;99384.13;5071403;28;20193;-69
2021/10/21 11:23:00;;;;;;;4.53;1.07;;;;;;;12.44;80.81;99386.53;5070152;28;20221;-69
2021/10/21 11:25:28;;;;;;;7.00;1.40;;;;;;;12.20;82.56;99403.94;5071372;28;20209;-69
2021/10/21 11:27:53;;;;;;;4.10;1.30;;;;;;;12.16;82.15;99410.81;5071257;28;20274;-69
2021/10/21 11:30:23;;;;;;;4.43;1.27;;;;;;;12.15;81.86;99409.13;5071408;28;20668;-69
2021/10/21 11:32:50;;;;;;;6.23;1.30;;;;;;;14.73;73.47;99398.31;5053891;28;20213;-69
2021/10/21 11:35:18;;;;;;;3.50;1.23;;;;;;;13.30;76.59;99403.41;5051106;28;20194;-69
2021/10/21 11:37:50;;;;;;;4.40;1.37;;;;;;;13.24;76.88;99416.38;5050823;28;20214;-69